Time;durP1;ratioP1;P1;durP2;ratioP2;P2;SDS_P1;SDS_P2;PMS_P1;PMS_P2;Temp;Humidity;BMP_temperature;BMP_pressure;BME280_temperature;BME280_humidity;BME280_pressure;Samples;Min_cycle;Max_cycle;Signal;HPM_P1;HPM_P2
2024/01/31 00:01:22;;;;;;;10.30;4.63;;;;;;;;;;4756751;30;20055;-79
2024/01/31 00:03:48;;;;;;;7.88;2.92;;;;;;;;;;4760227;30;20122;-79
2024/01/31 00:06:14;;;;;;;5.32;3.25;;;;;;;;;;4754137;30;20571;-79
2024/01/31 00:08:40;;;;;;;8.15;3.75;;;;;;;;;;4767853;30;20042;-79
2024/01/31 00:11:09;;;;;;;7.68;2.92;;;;;;;;;;4760458;30;20387;-79
2024/01/31 00:13:35;;;;;;;;;;;;;;;;;;4767394;30;20032;-80
2024/01/31 00:16:01;;;;;;;;;;;;;;;;;;4759509;30;19930;-79
2024/01/31 00:18:27;;;;;;;;;;;;;;;;;;4763753;30;19918;-79
2024/01/31 00:20:53;;;;;;;5.07;2.97;;;;;;;;;;4745965;30;19918;-79
2024/01/31 00:23:19;;;;;;;8.88;3.60;;;;;;;;;;4759039;30;20048;-79
2024/01/31 00:25:45;;;;;;;9.13;3.27;;;;;;;;;;4760972;30;20541;-79
2024/01/31 00:28:12;;;;;;;5.70;2.83;;;;;;;;;;4759088;30;20678;-79
2024/01/31 00:30:38;;;;;;;8.15;2.38;;;;;;;;;;4767610;30;20063;-79
2024/01/31 00:33:04;;;;;;;2.20;1.45;;;;;;;;;;4758740;30;20817;-79
2024/01/31 00:35:30;;;;;;;2.85;1.80;;;;;;;;;;4768298;30;20090;-79
2024/01/31 00:37:56;;;;;;;2.95;2.45;;;;;;;;;;4760498;30;20554;-79
2024/01/31 00:40:22;;;;;;;2.38;1.13;;;;;;;;;;4768475;30;20079;-79
2024/01/31 00:42:48;;;;;;;5.32;2.13;;;;;;;;;;4765968;30;20052;-79
2024/01/31 00:45:14;;;;;;;6.70;2.90;;;;;;;;;;4754029;30;20036;-79
2024/01/31 00:47:40;;;;;;;2.25;1.40;;;;;;;;;;4762823;30;20085;-79
2024/01/31 00:50:07;;;;;;;3.40;2.03;;;;;;;;;;4764098;30;20044;-79
2024/01/31 00:52:33;;;;;;;11.57;2.47;;;;;;;;;;4741526;30;20039;-79
2024/01/31 00:54:59;;;;;;;8.60;3.17;;;;;;;;;;4763959;30;20040;-79
2024/01/31 00:57:25;;;;;;;6.75;2.33;;;;;;;;;;4761793;30;20108;-79
2024/01/31 00:59:51;;;;;;;2.65;1.90;;;;;;;;;;4760638;30;20110;-79
2024/01/31 01:02:17;;;;;;;2.20;1.45;;;;;;;;;;4764795;30;20116;-79
2024/01/31 01:04:43;;;;;;;13.77;1.02;;;;;;;;;;4768364;30;20051;-79
2024/01/31 01:07:09;;;;;;;2.80;1.48;;;;;;;;;;4767058;30;20032;-79
2024/01/31 01:09:35;;;;;;;1.73;1.17;;;;;;;;;;4756518;30;20075;-79
2024/01/31 01:12:03;;;;;;;1.88;0.98;;;;;;;;;;4748801;30;20426;-79
2024/01/31 01:14:29;;;;;;;9.15;1.90;;;;;;;;;;4762654;30;20043;-79
2024/01/31 01:16:55;;;;;;;11.27;2.40;;;;;;;;;;4765723;30;20222;-79
2024/01/31 01:19:21;;;;;;;1.52;0.95;;;;;;;;;;4760209;30;20387;-79
2024/01/31 01:21:47;;;;;;;2.08;1.08;;;;;;;;;;4753559;30;20077;-79
2024/01/31 01:24:13;;;;;;;1.38;0.80;;;;;;;;;;4757099;30;20120;-79
2024/01/31 01:26:42;;;;;;;3.28;1.83;;;;;;;;;;4767697;30;20131;-79
2024/01/31 01:29:08;;;;;;;4.80;1.63;;;;;;;;;;4755616;30;20123;-79
2024/01/31 01:31:34;;;;;;;1.65;1.25;;;;;;;;;;4771068;30;20032;-79
2024/01/31 01:34:00;;;;;;;1.45;1.35;;;;;;;;;;4761672;30;20044;-79
2024/01/31 01:36:26;;;;;;;6.65;1.42;;;;;;;;;;4771425;30;20038;-79
2024/01/31 01:38:52;;;;;;;8.50;1.15;;;;;;;;;;4749514;30;20032;-79
2024/01/31 01:41:18;;;;;;;0.90;0.75;;;;;;;;;;4754916;30;20064;-79
2024/01/31 01:43:44;;;;;;;3.92;1.70;;;;;;;;;;4770877;30;20043;-79
2024/01/31 01:46:17;;;;;;;4.20;1.60;;;;;;;;;;4771118;30;20036;-79
2024/01/31 01:48:42;;;;;;;;;;;;;;;;;;4760110;30;20047;-79
2024/01/31 01:51:09;;;;;;;10.63;1.48;;;;;;;;;;4766712;30;19921;-79
2024/01/31 01:53:36;;;;;;;6.32;2.63;;;;;;;;;;4765289;30;20046;-79
2024/01/31 01:56:08;;;;;;;1.40;0.93;;;;;;;;;;4759372;30;20032;-79
2024/01/31 01:58:34;;;;;;;;;;;;;;;;;;4767553;30;20040;-79
2024/01/31 02:01:00;;;;;;;5.07;2.45;;;;;;;;;;4759668;30;19952;-79
2024/01/31 02:03:28;;;;;;;7.00;1.10;;;;;;;;;;4760081;30;20040;-79
2024/01/31 02:05:54;;;;;;;8.88;1.42;;;;;;;;;;4768058;30;20047;-79
2024/01/31 02:08:20;;;;;;;6.38;2.80;;;;;;;;;;4761538;30;20114;-79
2024/01/31 02:10:46;;;;;;;4.40;1.42;;;;;;;;;;4762681;30;20731;-79
2024/01/31 02:13:12;;;;;;;1.95;1.15;;;;;;;;;;4748468;30;20024;-79
2024/01/31 02:15:38;;;;;;;8.75;1.17;;;;;;;;;;4767552;30;20036;-79
2024/01/31 02:18:04;;;;;;;1.30;0.90;;;;;;;;;;4766541;30;20040;-79
2024/01/31 02:20:30;;;;;;;4.28;1.38;;;;;;;;;;4770755;30;20044;-79
2024/01/31 02:22:56;;;;;;;4.80;1.55;;;;;;;;;;4764267;30;20475;-79
2024/01/31 02:25:22;;;;;;;1.60;1.27;;;;;;;;;;4762452;30;20047;-79
2024/01/31 02:27:48;;;;;;;2.10;1.65;;;;;;;;;;4764542;30;20044;-79
2024/01/31 02:30:15;;;;;;;4.28;1.73;;;;;;;;;;4759375;30;20480;-79
2024/01/31 02:32:41;;;;;;;6.82;1.55;;;;;;;;;;4761123;30;20443;-79
2024/01/31 02:35:07;;;;;;;1.77;0.55;;;;;;;;;;4761189;30;20119;-79
2024/01/31 02:37:33;;;;;;;4.10;2.03;;;;;;;;;;4764235;30;20039;-79
2024/01/31 02:40:00;;;;;;;2.00;0.93;;;;;;;;;;4762958;30;20170;-79
2024/01/31 02:42:26;;;;;;;0.90;0.40;;;;;;;;;;4766768;30;20260;-79
2024/01/31 02:44:52;;;;;;;1.98;1.35;;;;;;;;;;4753444;30;20476;-79
2024/01/31 02:47:18;;;;;;;1.73;1.08;;;;;;;;;;4764951;30;20126;-79
2024/01/31 02:49:44;;;;;;;17.48;1.70;;;;;;;;;;4768885;30;20574;-79
2024/01/31 02:52:10;;;;;;;0.63;0.28;;;;;;;;;;4761449;30;20028;-79
2024/01/31 02:54:36;;;;;;;;;;;;;;;;;;4767155;30;20035;-79
2024/01/31 02:57:02;;;;;;;2.10;1.20;;;;;;;;;;4770162;30;20040;-80
2024/01/31 02:59:28;;;;;;;2.97;0.73;;;;;;;;;;4765815;30;20038;-79
2024/01/31 03:01:54;;;;;;;2.95;0.98;;;;;;;;;;4769855;30;20051;-79
2024/01/31 03:04:20;;;;;;;1.15;0.65;;;;;;;;;;4767880;30;20047;-79
2024/01/31 03:06:46;;;;;;;0.80;0.80;;;;;;;;;;4770760;30;20498;-80
2024/01/31 03:09:12;;;;;;;11.15;2.67;;;;;;;;;;4761685;30;20098;-80
2024/01/31 03:11:38;;;;;;;11.00;2.70;;;;;;;;;;4770424;30;20124;-79
2024/01/31 03:14:04;;;;;;;2.80;1.67;;;;;;;;;;4756507;30;20123;-80
2024/01/31 03:16:30;;;;;;;2.47;1.08;;;;;;;;;;4770072;30;20039;-79
2024/01/31 03:18:58;;;;;;;4.13;1.40;;;;;;;;;;4763660;30;20452;-79
2024/01/31 03:21:24;;;;;;;3.05;2.05;;;;;;;;;;4768273;30;20061;-79
2024/01/31 03:23:51;;;;;;;1.95;1.17;;;;;;;;;;4763221;30;20040;-79
2024/01/31 03:26:17;;;;;;;3.25;1.20;;;;;;;;;;4764725;30;20620;-79
2024/01/31 03:28:43;;;;;;;4.53;1.48;;;;;;;;;;4756539;30;20067;-79
2024/01/31 03:31:09;;;;;;;2.35;1.30;;;;;;;;;;4768013;30;20083;-79
2024/01/31 03:33:35;;;;;;;1.98;1.17;;;;;;;;;;4743349;30;20028;-79
2024/01/31 03:36:01;;;;;;;2.33;0.73;;;;;;;;;;4766954;30;20043;-79
2024/01/31 03:38:27;;;;;;;0.70;0.60;;;;;;;;;;4768290;30;20055;-79
2024/01/31 03:40:53;;;;;;;5.53;0.95;;;;;;;;;;4764684;30;20064;-79
2024/01/31 03:43:19;;;;;;;2.65;1.40;;;;;;;;;;4765435;30;20523;-79
2024/01/31 03:45:45;;;;;;;1.05;0.68;;;;;;;;;;4766772;30;20093;-78
2024/01/31 03:48:11;;;;;;;2.35;0.65;;;;;;;;;;4769495;30;20028;-79
2024/01/31 03:50:37;;;;;;;3.58;1.27;;;;;;;;;;4770021;30;20467;-78
2024/01/31 03:53:03;;;;;;;1.92;0.80;;;;;;;;;;4762415;30;20082;-79
2024/01/31 03:55:29;;;;;;;1.67;0.85;;;;;;;;;;4761001;30;20044;-79
2024/01/31 03:57:55;;;;;;;7.35;1.77;;;;;;;;;;4760126;30;20102;-78
2024/01/31 04:00:21;;;;;;;1.48;1.00;;;;;;;;;;4759563;30;20044;-78
2024/01/31 04:02:47;;;;;;;1.10;0.35;;;;;;;;;;4751656;30;20077;-78
2024/01/31 04:05:13;;;;;;;2.67;0.60;;;;;;;;;;4754382;30;20420;-78
2024/01/31 04:07:39;;;;;;;3.72;1.92;;;;;;;;;;4768927;30;20044;-79
2024/01/31 04:10:05;;;;;;;2.45;0.85;;;;;;;;;;4766593;30;20126;-79
2024/01/31 04:12:31;;;;;;;2.17;1.42;;;;;;;;;;4759578;30;20074;-79
2024/01/31 04:14:57;;;;;;;5.43;1.17;;;;;;;;;;4764377;30;20463;-79
2024/01/31 04:17:23;;;;;;;1.08;0.85;;;;;;;;;;4744186;30;20043;-79
2024/01/31 04:19:49;;;;;;;5.53;1.75;;;;;;;;;;4761293;30;20573;-79
2024/01/31 04:22:16;;;;;;;7.10;1.38;;;;;;;;;;4765228;30;20827;-79
2024/01/31 04:24:43;;;;;;;3.40;1.45;;;;;;;;;;4760231;30;20043;-79
2024/01/31 04:27:10;;;;;;;1.38;1.13;;;;;;;;;;4755846;30;20034;-79
2024/01/31 04:29:38;;;;;;;2.55;0.65;;;;;;;;;;4756005;30;20060;-79
2024/01/31 04:32:05;;;;;;;1.55;0.85;;;;;;;;;;4758095;30;20036;-79
2024/01/31 04:34:31;;;;;;;6.82;1.95;;;;;;;;;;4754281;30;20459;-79
2024/01/31 04:36:57;;;;;;;1.75;0.75;;;;;;;;;;4760324;30;20071;-79
2024/01/31 04:39:22;;;;;;;2.50;1.55;;;;;;;;;;4758805;30;20077;-79
2024/01/31 04:41:49;;;;;;;5.05;1.60;;;;;;;;;;4758666;30;20052;-79
2024/01/31 04:44:15;;;;;;;1.05;0.55;;;;;;;;;;4768523;30;20051;-79
2024/01/31 04:46:41;;;;;;;0.95;0.63;;;;;;;;;;4759688;30;20092;-79
2024/01/31 04:49:07;;;;;;;4.35;1.98;;;;;;;;;;4751128;30;20032;-79
2024/01/31 04:51:33;;;;;;;1.50;0.57;;;;;;;;;;4765510;30;20039;-79
2024/01/31 04:53:59;;;;;;;1.45;0.63;;;;;;;;;;4755051;30;20427;-79
2024/01/31 04:56:25;;;;;;;0.75;0.45;;;;;;;;;;4749829;30;20093;-79
2024/01/31 04:58:51;;;;;;;8.10;1.98;;;;;;;;;;4767326;30;20478;-79
2024/01/31 05:01:17;;;;;;;3.97;2.17;;;;;;;;;;4767633;30;20108;-79
2024/01/31 05:03:43;;;;;;;6.53;0.75;;;;;;;;;;4762544;30;20047;-79
2024/01/31 05:06:09;;;;;;;1.70;0.70;;;;;;;;;;4766869;30;20043;-79
2024/01/31 05:08:35;;;;;;;0.45;0.45;;;;;;;;;;4761449;30;20402;-79
2024/01/31 05:11:01;;;;;;;5.45;1.05;;;;;;;;;;4751706;30;20449;-78
2024/01/31 05:13:27;;;;;;;2.92;1.63;;;;;;;;;;4760142;30;20028;-79
2024/01/31 05:15:53;;;;;;;3.22;0.98;;;;;;;;;;4757213;30;20051;-79
2024/01/31 05:18:19;;;;;;;3.55;0.50;;;;;;;;;;4755667;30;20059;-78
2024/01/31 05:20:45;;;;;;;2.22;0.63;;;;;;;;;;4768785;30;20079;-79
2024/01/31 05:23:11;;;;;;;3.50;1.05;;;;;;;;;;4757642;30;20043;-79
2024/01/31 05:25:37;;;;;;;3.42;1.38;;;;;;;;;;4767225;30;20141;-79
2024/01/31 05:28:03;;;;;;;1.85;1.38;;;;;;;;;;4754149;30;20127;-79
2024/01/31 05:30:29;;;;;;;2.55;0.90;;;;;;;;;;4748451;30;20166;-79
2024/01/31 05:32:55;;;;;;;1.48;0.65;;;;;;;;;;4753201;30;20744;-79
2024/01/31 05:35:21;;;;;;;1.50;0.80;;;;;;;;;;4764427;30;20040;-79
2024/01/31 05:37:47;;;;;;;4.15;1.30;;;;;;;;;;4767309;30;20043;-79
2024/01/31 05:40:16;;;;;;;2.22;1.10;;;;;;;;;;4762548;30;20051;-79
2024/01/31 05:42:43;;;;;;;1.85;1.52;;;;;;;;;;4750454;30;20043;-79
2024/01/31 05:45:09;;;;;;;1.98;1.33;;;;;;;;;;4753744;30;20036;-79
2024/01/31 05:47:35;;;;;;;2.17;1.58;;;;;;;;;;4760274;30;20036;-79
2024/01/31 05:50:01;;;;;;;2.03;1.08;;;;;;;;;;4758171;30;20067;-79
2024/01/31 05:52:27;;;;;;;2.15;0.95;;;;;;;;;;4761975;30;20035;-79
2024/01/31 05:54:53;;;;;;;8.60;1.40;;;;;;;;;;4762149;30;20047;-79
2024/01/31 05:57:19;;;;;;;1.00;0.63;;;;;;;;;;4767270;30;20475;-79
2024/01/31 05:59:45;;;;;;;7.80;1.65;;;;;;;;;;4757351;30;20044;-79
2024/01/31 06:02:11;;;;;;;3.17;1.48;;;;;;;;;;4764286;30;20059;-79
2024/01/31 06:04:37;;;;;;;6.50;1.77;;;;;;;;;;4749657;30;20032;-79
2024/01/31 06:07:03;;;;;;;2.35;1.58;;;;;;;;;;4754251;30;20040;-78
2024/01/31 06:09:30;;;;;;;2.05;1.00;;;;;;;;;;4760574;30;20039;-78
2024/01/31 06:11:56;;;;;;;7.88;1.45;;;;;;;;;;4764104;30;20071;-78
2024/01/31 06:14:22;;;;;;;;;;;;;;;;;;4752078;30;20071;-80
2024/01/31 06:16:48;;;;;;;4.55;2.45;;;;;;;;;;4762154;30;20323;-79
2024/01/31 06:19:14;;;;;;;7.53;2.00;;;;;;;;;;4763044;30;20104;-79
2024/01/31 06:21:40;;;;;;;4.20;2.47;;;;;;;;;;4756980;30;20048;-79
2024/01/31 06:24:06;;;;;;;3.30;1.75;;;;;;;;;;4765836;30;20471;-79
2024/01/31 06:26:32;;;;;;;2.28;0.85;;;;;;;;;;4760306;30;20472;-79
2024/01/31 06:28:58;;;;;;;4.43;1.35;;;;;;;;;;4767749;30;20563;-79
2024/01/31 06:31:27;;;;;;;1.98;1.27;;;;;;;;;;4767045;30;20043;-79
2024/01/31 06:33:53;;;;;;;4.90;1.40;;;;;;;;;;4752290;30;20081;-79
2024/01/31 06:36:20;;;;;;;3.13;0.82;;;;;;;;;;4765092;30;20043;-80
2024/01/31 06:38:46;;;;;;;3.92;1.20;;;;;;;;;;4756975;30;20047;-82
2024/01/31 06:41:14;;;;;;;4.50;1.98;;;;;;;;;;4740788;30;20109;-78
2024/01/31 06:43:40;;;;;;;3.20;1.23;;;;;;;;;;4760618;30;20104;-79
2024/01/31 06:46:06;;;;;;;4.32;1.83;;;;;;;;;;4768484;30;20538;-79
2024/01/31 06:48:32;;;;;;;5.70;2.72;;;;;;;;;;4769745;30;20032;-79
2024/01/31 06:50:57;;;;;;;16.90;3.20;;;;;;;;;;4758607;30;20059;-78
2024/01/31 06:53:23;;;;;;;26.33;3.00;;;;;;;;;;4764424;30;20064;-78
2024/01/31 06:55:50;;;;;;;5.53;1.48;;;;;;;;;;4747837;30;20044;-79
2024/01/31 06:58:16;;;;;;;3.53;1.35;;;;;;;;;;4761830;30;20036;-79
2024/01/31 07:00:42;;;;;;;3.45;1.20;;;;;;;;;;4758915;30;20119;-79
2024/01/31 07:03:08;;;;;;;3.70;2.10;;;;;;;;;;4759485;30;20122;-79
2024/01/31 07:05:34;;;;;;;5.80;1.90;;;;;;;;;;4766574;30;20080;-79
2024/01/31 07:08:00;;;;;;;4.70;2.10;;;;;;;;;;4765960;30;20055;-79
2024/01/31 07:10:26;;;;;;;5.95;2.00;;;;;;;;;;4759391;30;20043;-79
2024/01/31 07:12:53;;;;;;;6.05;2.90;;;;;;;;;;4752837;30;20651;-79
2024/01/31 07:15:20;;;;;;;3.63;1.50;;;;;;;;;;4757713;30;20040;-79
2024/01/31 07:17:47;;;;;;;6.50;1.65;;;;;;;;;;4761526;30;20491;-78
2024/01/31 07:20:13;;;;;;;9.98;1.60;;;;;;;;;;4761733;30;20468;-79
2024/01/31 07:22:39;;;;;;;7.60;1.13;;;;;;;;;;4769212;30;20043;-79
2024/01/31 07:25:10;;;;;;;3.90;1.83;;;;;;;;;;4746545;30;20113;-78
2024/01/31 07:27:38;;;;;;;2.93;1.30;;;;;;;;;;4766695;30;20063;-78
2024/01/31 07:30:04;;;;;;;10.20;2.60;;;;;;;;;;4764463;30;20058;-79
2024/01/31 07:32:30;;;;;;;5.07;2.55;;;;;;;;;;4765650;30;20079;-78
2024/01/31 07:34:56;;;;;;;4.97;2.60;;;;;;;;;;4755245;30;20064;-78
2024/01/31 07:37:22;;;;;;;19.75;3.30;;;;;;;;;;4764797;30;20085;-78
2024/01/31 07:39:48;;;;;;;5.72;3.47;;;;;;;;;;4762993;30;20040;-79
2024/01/31 07:42:14;;;;;;;6.57;3.83;;;;;;;;;;4755416;30;20124;-79
2024/01/31 07:44:40;;;;;;;4.18;2.00;;;;;;;;;;4760812;30;20036;-79
2024/01/31 07:47:06;;;;;;;3.80;1.98;;;;;;;;;;4761762;30;20085;-79
2024/01/31 07:49:32;;;;;;;6.20;2.97;;;;;;;;;;4751145;30;20028;-79
2024/01/31 07:51:58;;;;;;;4.43;2.17;;;;;;;;;;4762163;30;20048;-79
2024/01/31 07:54:24;;;;;;;3.15;1.23;;;;;;;;;;4755950;30;20431;-80
2024/01/31 07:56:50;;;;;;;1.77;1.02;;;;;;;;;;4759950;30;20039;-79
2024/01/31 07:59:16;;;;;;;13.00;2.60;;;;;;;;;;4760987;30;20062;-79
2024/01/31 08:01:42;;;;;;;11.70;2.95;;;;;;;;;;4765313;30;20782;-79
2024/01/31 08:04:08;;;;;;;5.00;2.75;;;;;;;;;;4756393;30;20031;-79
2024/01/31 08:06:35;;;;;;;6.00;3.20;;;;;;;;;;4756113;30;20469;-79
2024/01/31 08:09:01;;;;;;;;;;;;;;;;;;4765227;30;20036;-78
2024/01/31 08:11:27;;;;;;;3.40;1.95;;;;;;;;;;4761187;30;20392;-78
2024/01/31 08:13:53;;;;;;;5.25;2.03;;;;;;;;;;4760677;30;20051;-79
2024/01/31 08:16:19;;;;;;;4.43;1.80;;;;;;;;;;4755891;30;20036;-79
2024/01/31 08:18:45;;;;;;;;;;;;;;;;;;4767656;30;20065;-79
2024/01/31 08:21:11;;;;;;;14.98;4.63;;;;;;;;;;4765340;30;19925;-79
2024/01/31 08:23:37;;;;;;;;;;;;;;;;;;4764425;30;20035;-79
2024/01/31 08:26:05;;;;;;;8.27;3.33;;;;;;;;;;4753046;30;19921;-79
2024/01/31 08:28:31;;;;;;;17.85;3.75;;;;;;;;;;4765035;30;20032;-79
2024/01/31 08:30:57;;;;;;;7.00;3.05;;;;;;;;;;4761008;30;20410;-79
2024/01/31 08:33:23;;;;;;;4.07;2.33;;;;;;;;;;4757268;30;20074;-78
2024/01/31 08:35:49;;;;;;;12.07;2.47;;;;;;;;;;4759761;30;20610;-79
2024/01/31 08:38:15;;;;;;;4.35;1.85;;;;;;;;;;4754280;30;20051;-79
2024/01/31 08:40:41;;;;;;;5.82;3.20;;;;;;;;;;4768640;30;20418;-79
2024/01/31 08:43:07;;;;;;;4.07;2.92;;;;;;;;;;4763760;30;20075;-79
2024/01/31 08:45:33;;;;;;;4.70;1.38;;;;;;;;;;4762258;30;20114;-79
2024/01/31 08:48:00;;;;;;;2.92;2.15;;;;;;;;;;4756707;30;20040;-79
2024/01/31 08:50:26;;;;;;;7.40;2.72;;;;;;;;;;4760790;30;20429;-79
2024/01/31 08:52:51;;;;;;;;;;;;;;;;;;4760377;30;20089;-79
2024/01/31 08:55:17;;;;;;;11.88;2.65;;;;;;;;;;4765826;30;20028;-79
2024/01/31 08:57:43;;;;;;;10.48;4.63;;;;;;;;;;4750081;30;20939;-79
2024/01/31 09:00:10;;;;;;;10.10;5.07;;;;;;;;;;4766556;30;20908;-79
2024/01/31 09:02:36;;;;;;;8.32;4.00;;;;;;;;;;4761302;30;20412;-79
2024/01/31 09:05:02;;;;;;;6.10;2.97;;;;;;;;;;4759542;30;20040;-79
2024/01/31 09:07:28;;;;;;;15.77;4.00;;;;;;;;;;4757900;30;20043;-79
2024/01/31 09:09:54;;;;;;;6.63;3.03;;;;;;;;;;4762521;30;20051;-79
2024/01/31 09:12:20;;;;;;;14.77;1.60;;;;;;;;;;4765967;30;20043;-79
2024/01/31 09:14:46;;;;;;;7.72;3.00;;;;;;;;;;4768765;30;20534;-79
2024/01/31 09:17:12;;;;;;;;;;;;;;;;;;4763719;30;20046;-79
2024/01/31 09:19:38;;;;;;;10.30;3.08;;;;;;;;;;4751942;30;19922;-79
2024/01/31 09:22:05;;;;;;;11.50;2.45;;;;;;;;;;4756264;30;20636;-79
2024/01/31 09:24:31;;;;;;;10.20;1.38;;;;;;;;;;4756453;30;20494;-79
2024/01/31 09:26:57;;;;;;;4.35;2.05;;;;;;;;;;4765407;30;20713;-79
2024/01/31 09:29:25;;;;;;;7.97;1.95;;;;;;;;;;4762658;30;20056;-79
2024/01/31 09:31:51;;;;;;;9.48;2.67;;;;;;;;;;4752061;30;20044;-79
2024/01/31 09:34:18;;;;;;;2.58;1.33;;;;;;;;;;4750924;30;20048;-79
2024/01/31 09:36:48;;;;;;;5.40;1.20;;;;;;;;;;4763590;30;20047;-79
2024/01/31 09:39:14;;;;;;;1.45;0.90;;;;;;;;;;4754952;30;20039;-79
2024/01/31 09:41:41;;;;;;;3.00;1.48;;;;;;;;;;4764967;30;20081;-79
2024/01/31 09:44:07;;;;;;;6.38;1.75;;;;;;;;;;4765720;30;20040;-79
2024/01/31 09:46:35;;;;;;;3.25;2.10;;;;;;;;;;4737464;30;20698;-79
2024/01/31 09:49:01;;;;;;;5.90;1.55;;;;;;;;;;4741286;30;20482;-79
2024/01/31 09:51:29;;;;;;;4.93;1.67;;;;;;;;;;4751582;30;20572;-79
2024/01/31 09:54:00;;;;;;;4.13;2.15;;;;;;;;;;4754650;30;20429;-79
2024/01/31 09:56:31;;;;;;;7.10;3.35;;;;;;;;;;4767820;30;20418;-79
2024/01/31 09:58:57;;;;;;;8.90;2.55;;;;;;;;;;4762776;30;20108;-79
2024/01/31 10:01:25;;;;;;;7.60;2.33;;;;;;;;;;4770799;30;20032;-79
2024/01/31 10:03:52;;;;;;;3.13;2.30;;;;;;;;;;4757691;30;20506;-79
2024/01/31 10:06:19;;;;;;;2.47;1.50;;;;;;;;;;4755074;30;20119;-81
2024/01/31 10:08:46;;;;;;;4.60;1.63;;;;;;;;;;4760668;30;20498;-79
2024/01/31 10:11:12;;;;;;;4.47;1.75;;;;;;;;;;4760753;30;20528;-79
2024/01/31 10:13:39;;;;;;;6.85;2.40;;;;;;;;;;4762165;30;20036;-79
2024/01/31 10:16:05;;;;;;;4.18;2.17;;;;;;;;;;4764158;30;20036;-79
2024/01/31 10:18:31;;;;;;;4.75;2.25;;;;;;;;;;4757632;30;20899;-81
2024/01/31 10:20:58;;;;;;;4.38;1.52;;;;;;;;;;4763498;30;20043;-80
2024/01/31 10:23:24;;;;;;;3.90;1.45;;;;;;;;;;4768058;30;20128;-81
2024/01/31 10:25:50;;;;;;;6.95;1.85;;;;;;;;;;4760903;30;20090;-78
2024/01/31 10:28:19;;;;;;;2.35;1.17;;;;;;;;;;4768749;30;20063;-78
2024/01/31 10:30:45;;;;;;;3.35;1.23;;;;;;;;;;4761988;30;20143;-79
2024/01/31 10:33:12;;;;;;;2.33;1.45;;;;;;;;;;4760924;30;20035;-79
2024/01/31 10:35:40;;;;;;;0.98;0.70;;;;;;;;;;4770287;30;20057;-78
2024/01/31 10:38:07;;;;;;;2.92;1.23;;;;;;;;;;4768045;30;20038;-81
2024/01/31 10:40:34;;;;;;;1.75;0.30;;;;;;;;;;4756830;30;20039;-80
2024/01/31 10:43:02;;;;;;;0.85;0.50;;;;;;;;;;4759604;30;20039;-80
2024/01/31 10:45:31;;;;;;;7.22;1.20;;;;;;;;;;4754612;30;20432;-79
2024/01/31 10:47:57;;;;;;;3.67;1.20;;;;;;;;;;4762268;30;20127;-80
2024/01/31 10:50:23;;;;;;;3.50;1.52;;;;;;;;;;4756038;30;20046;-80
2024/01/31 10:52:50;;;;;;;2.55;0.95;;;;;;;;;;4771350;30;20039;-80
2024/01/31 10:55:17;;;;;;;1.77;1.00;;;;;;;;;;4767899;30;20475;-80
2024/01/31 10:57:43;;;;;;;2.78;1.63;;;;;;;;;;4753138;30;20494;-80
2024/01/31 11:00:10;;;;;;;1.80;0.82;;;;;;;;;;4769925;30;20047;-80
2024/01/31 11:02:36;;;;;;;0.50;0.40;;;;;;;;;;4770341;30;20040;-83
2024/01/31 11:05:03;;;;;;;3.65;2.05;;;;;;;;;;4751027;30;20028;-82
2024/01/31 11:07:30;;;;;;;1.48;1.02;;;;;;;;;;4769415;30;20040;-82
2024/01/31 11:09:56;;;;;;;1.67;0.98;;;;;;;;;;4768877;30;20033;-79
2024/01/31 11:12:22;;;;;;;1.77;1.02;;;;;;;;;;4766489;30;20047;-80
2024/01/31 11:14:52;;;;;;;1.85;1.60;;;;;;;;;;4764568;30;20475;-80
2024/01/31 11:17:19;;;;;;;0.60;0.40;;;;;;;;;;4754477;30;20044;-79
2024/01/31 11:19:49;;;;;;;1.10;0.40;;;;;;;;;;4767789;30;20043;-79
2024/01/31 11:22:15;;;;;;;1.70;0.43;;;;;;;;;;4761323;30;20082;-78
2024/01/31 11:24:48;;;;;;;1.15;0.60;;;;;;;;;;4755236;30;20040;-78
2024/01/31 11:27:14;;;;;;;0.77;0.38;;;;;;;;;;4761638;30;20097;-79
2024/01/31 11:29:42;;;;;;;1.27;0.77;;;;;;;;;;4767209;30;20438;-81
2024/01/31 11:32:09;;;;;;;3.92;0.85;;;;;;;;;;4767381;30;20131;-80
2024/01/31 11:34:35;;;;;;;4.47;0.70;;;;;;;;;;4763172;30;20027;-80
2024/01/31 11:37:01;;;;;;;3.88;0.70;;;;;;;;;;4768748;30;20521;-81
2024/01/31 11:39:27;;;;;;;2.30;1.05;;;;;;;;;;4760079;30;20036;-82
2024/01/31 11:41:54;;;;;;;7.07;0.60;;;;;;;;;;4750839;30;20078;-81
2024/01/31 11:44:20;;;;;;;2.80;1.00;;;;;;;;;;4761232;30;20032;-82
2024/01/31 11:46:47;;;;;;;1.50;0.82;;;;;;;;;;4768070;30;20106;-80
2024/01/31 11:49:13;;;;;;;1.23;0.80;;;;;;;;;;4763088;30;20032;-80
2024/01/31 11:51:39;;;;;;;3.35;1.60;;;;;;;;;;4758913;30;20127;-83
2024/01/31 11:54:05;;;;;;;1.45;0.85;;;;;;;;;;4751395;30;20123;-81
2024/01/31 11:56:31;;;;;;;;;;;;;;;;;;4770713;30;20491;-81
2024/01/31 11:58:59;;;;;;;1.60;0.95;;;;;;;;;;4771242;30;20264;-79
2024/01/31 12:01:25;;;;;;;6.00;1.30;;;;;;;;;;4759960;30;20432;-79
2024/01/31 12:03:51;;;;;;;3.33;0.98;;;;;;;;;;4762251;30;20110;-79
2024/01/31 12:06:20;;;;;;;2.78;0.80;;;;;;;;;;4765594;30;20422;-79
2024/01/31 12:08:47;;;;;;;3.08;1.02;;;;;;;;;;4759322;30;20491;-79
2024/01/31 12:11:14;;;;;;;4.15;1.17;;;;;;;;;;4763476;30;20039;-79
2024/01/31 12:13:41;;;;;;;2.17;1.20;;;;;;;;;;4764004;30;20042;-80
2024/01/31 12:16:07;;;;;;;5.00;1.40;;;;;;;;;;4765585;30;20046;-81
2024/01/31 12:18:33;;;;;;;1.15;0.65;;;;;;;;;;4757219;30;20031;-81
2024/01/31 12:21:01;;;;;;;0.75;0.52;;;;;;;;;;4766040;30;20044;-81
2024/01/31 12:23:27;;;;;;;2.17;1.10;;;;;;;;;;4764163;30;20036;-81
2024/01/31 12:25:53;;;;;;;1.13;0.70;;;;;;;;;;4761839;30;20047;-80
2024/01/31 12:28:18;;;;;;;5.38;1.23;;;;;;;;;;4752910;30;20053;-82
2024/01/31 12:30:44;;;;;;;2.03;1.23;;;;;;;;;;4761861;30;20051;-81
2024/01/31 12:33:10;;;;;;;2.17;0.80;;;;;;;;;;4757245;30;20032;-82
2024/01/31 12:35:36;;;;;;;4.32;0.98;;;;;;;;;;4769996;30;20524;-82
2024/01/31 12:38:03;;;;;;;0.40;0.20;;;;;;;;;;4757585;30;20040;-82
2024/01/31 12:40:29;;;;;;;3.40;1.20;;;;;;;;;;4766397;30;20509;-81
2024/01/31 12:42:56;;;;;;;0.90;0.63;;;;;;;;;;4758576;30;20043;-81
2024/01/31 12:45:22;;;;;;;2.25;0.73;;;;;;;;;;4754862;30;20036;-79
2024/01/31 12:47:49;;;;;;;3.25;1.08;;;;;;;;;;4762354;30;20181;-79
2024/01/31 12:50:15;;;;;;;5.82;0.57;;;;;;;;;;4762267;30;20036;-80
2024/01/31 12:52:41;;;;;;;1.20;0.60;;;;;;;;;;4759959;30;20404;-80
2024/01/31 12:55:07;;;;;;;4.22;0.75;;;;;;;;;;4764623;30;20033;-80
2024/01/31 12:57:33;;;;;;;1.00;0.73;;;;;;;;;;4769585;30;20043;-79
2024/01/31 12:59:59;;;;;;;1.45;0.68;;;;;;;;;;4770125;30;20035;-80
2024/01/31 13:02:25;;;;;;;1.48;0.95;;;;;;;;;;4763533;30;20074;-79
2024/01/31 13:04:51;;;;;;;5.50;0.85;;;;;;;;;;4763838;30;20040;-79
2024/01/31 13:07:17;;;;;;;0.77;0.55;;;;;;;;;;4752776;30;20040;-79
2024/01/31 13:09:43;;;;;;;2.17;0.82;;;;;;;;;;4754017;30;20071;-81
2024/01/31 13:12:11;;;;;;;6.47;0.80;;;;;;;;;;4750250;30;20067;-81
2024/01/31 13:14:37;;;;;;;4.20;1.30;;;;;;;;;;4769689;30;20036;-80
2024/01/31 13:17:04;;;;;;;5.55;0.98;;;;;;;;;;4753428;30;20032;-82
2024/01/31 13:19:30;;;;;;;1.38;0.98;;;;;;;;;;4760559;30;20415;-81
2024/01/31 13:21:56;;;;;;;2.10;0.98;;;;;;;;;;4763896;30;20443;-81
2024/01/31 13:24:22;;;;;;;0.73;0.15;;;;;;;;;;4757007;30;20075;-81
2024/01/31 13:26:48;;;;;;;2.28;0.98;;;;;;;;;;4751506;30;20071;-81
2024/01/31 13:29:14;;;;;;;1.52;0.68;;;;;;;;;;4751357;30;20056;-81
2024/01/31 13:31:41;;;;;;;2.80;0.55;;;;;;;;;;4762330;30;20399;-84
2024/01/31 13:34:07;;;;;;;4.13;0.75;;;;;;;;;;4744904;30;20083;-81
2024/01/31 13:36:33;;;;;;;7.93;1.27;;;;;;;;;;4762147;30;20060;-80
2024/01/31 13:38:59;;;;;;;2.85;1.33;;;;;;;;;;4761748;30;20506;-80
2024/01/31 13:41:25;;;;;;;2.30;1.02;;;;;;;;;;4760882;30;20040;-81
2024/01/31 13:43:51;;;;;;;1.90;0.98;;;;;;;;;;4765195;30;20051;-80
2024/01/31 13:46:17;;;;;;;2.20;0.65;;;;;;;;;;4769756;30;20105;-82
2024/01/31 13:48:43;;;;;;;1.25;0.47;;;;;;;;;;4741047;30;20046;-79
2024/01/31 13:51:12;;;;;;;1.10;0.50;;;;;;;;;;4765763;30;20048;-80
2024/01/31 13:53:39;;;;;;;2.63;1.40;;;;;;;;;;4755280;30;20391;-80
2024/01/31 13:56:06;;;;;;;1.40;0.52;;;;;;;;;;4751112;30;20036;-81
2024/01/31 13:58:32;;;;;;;3.53;0.35;;;;;;;;;;4747069;30;20040;-80
2024/01/31 14:00:58;;;;;;;1.73;0.80;;;;;;;;;;4757588;30;20059;-81
2024/01/31 14:03:24;;;;;;;6.32;0.60;;;;;;;;;;4747174;30;20048;-80
2024/01/31 14:05:50;;;;;;;1.10;0.47;;;;;;;;;;4756013;30;20582;-80
2024/01/31 14:08:16;;;;;;;1.25;0.47;;;;;;;;;;4768136;30;20051;-81
2024/01/31 14:10:42;;;;;;;0.43;0.35;;;;;;;;;;4768199;30;20769;-80
2024/01/31 14:13:08;;;;;;;0.50;0.20;;;;;;;;;;4743714;30;20121;-80
2024/01/31 14:15:34;;;;;;;1.20;0.40;;;;;;;;;;4763970;30;20033;-80
2024/01/31 14:17:59;;;;;;;0.70;0.35;;;;;;;;;;4760565;30;20040;-80
2024/01/31 14:20:25;;;;;;;0.45;0.25;;;;;;;;;;4752182;30;20040;-83
2024/01/31 14:22:51;;;;;;;1.35;0.77;;;;;;;;;;4760225;30;20044;-82
2024/01/31 14:25:17;;;;;;;4.53;1.17;;;;;;;;;;4767555;30;20042;-81
2024/01/31 14:27:44;;;;;;;2.20;1.30;;;;;;;;;;4752864;30;20040;-81
2024/01/31 14:30:10;;;;;;;19.70;0.95;;;;;;;;;;4765774;30;20075;-81
2024/01/31 14:32:38;;;;;;;4.05;1.85;;;;;;;;;;4760562;30;20032;-81
2024/01/31 14:35:05;;;;;;;1.15;0.73;;;;;;;;;;4755050;30;20152;-82
2024/01/31 14:37:31;;;;;;;2.05;0.73;;;;;;;;;;4737680;30;20040;-79
2024/01/31 14:39:57;;;;;;;3.13;1.20;;;;;;;;;;4753888;30;20131;-80